Time;durP1;ratioP1;P1;durP2;ratioP2;P2;SDS_P1;SDS_P2;PMS_P1;PMS_P2;Temp;Humidity;BMP_temperature;BMP_pressure;BME280_temperature;BME280_humidity;BME280_pressure;Samples;Min_cycle;Max_cycle;Signal;HPM_P1;HPM_P2
2022/12/13 00:01:56;;;;;;;548.60;502.02;;;-5.20;99.90;;;;;;5078476;28;20224;-83
2022/12/13 00:04:24;;;;;;;537.70;491.20;;;-5.00;99.90;;;;;;5078840;28;20196;-83
2022/12/13 00:06:52;;;;;;;532.17;486.35;;;-5.00;99.90;;;;;;5078401;28;20206;-83
2022/12/13 00:09:20;;;;;;;540.97;494.60;;;-5.00;99.90;;;;;;5079214;28;20226;-83
2022/12/13 00:11:49;;;;;;;538.13;490.52;;;-4.90;99.90;;;;;;5079376;28;20213;-84
2022/12/13 00:14:16;;;;;;;529.45;485.55;;;-5.00;99.90;;;;;;5079880;28;20196;-83
2022/12/13 00:16:45;;;;;;;518.30;472.05;;;-4.90;99.90;;;;;;5079728;28;20203;-83
2022/12/13 00:19:13;;;;;;;516.17;469.92;;;-5.00;99.90;;;;;;5080261;28;20254;-83
2022/12/13 00:21:40;;;;;;;520.20;474.33;;;-5.00;99.90;;;;;;5078472;28;20220;-83
2022/12/13 00:24:08;;;;;;;540.10;494.73;;;-5.00;99.90;;;;;;5080322;28;20200;-83
2022/12/13 00:26:35;;;;;;;533.22;487.23;;;-4.90;99.90;;;;;;5080372;28;20200;-83
2022/12/13 00:29:05;;;;;;;522.45;476.80;;;-4.90;99.90;;;;;;5080069;28;20201;-83
2022/12/13 00:31:32;;;;;;;541.05;494.55;;;-5.00;99.90;;;;;;5079657;28;20220;-83
2022/12/13 00:33:59;;;;;;;529.58;481.85;;;-4.80;99.90;;;;;;5079986;28;20203;-82
2022/12/13 00:36:26;;;;;;;523.50;477.05;;;-4.80;99.90;;;;;;5079874;28;20230;-83
2022/12/13 00:39:00;;;;;;;521.17;473.67;;;-4.90;99.90;;;;;;5079945;28;20203;-83
2022/12/13 00:41:29;;;;;;;532.97;487.38;;;-4.90;99.90;;;;;;5079820;28;20226;-83
2022/12/13 00:43:56;;;;;;;545.88;496.85;;;-4.90;99.90;;;;;;5082968;28;20582;-82
2022/12/13 00:46:24;;;;;;;546.95;497.65;;;-4.80;99.90;;;;;;5084484;28;20614;-83
2022/12/13 00:48:52;;;;;;;542.67;493.92;;;-4.70;99.90;;;;;;5083026;28;20204;-82
2022/12/13 00:51:20;;;;;;;555.67;505.90;;;-4.60;99.90;;;;;;5083325;28;20596;-83
2022/12/13 00:53:48;;;;;;;548.10;499.80;;;-4.70;99.90;;;;;;5083344;28;20208;-82
2022/12/13 00:56:18;;;;;;;550.97;500.55;;;-4.60;99.90;;;;;;5081857;28;20203;-82
2022/12/13 00:58:45;;;;;;;542.15;490.38;;;-4.60;99.90;;;;;;5082211;28;20295;-83
2022/12/13 01:01:14;;;;;;;545.47;496.00;;;-4.50;99.90;;;;;;5081286;28;20260;-82
2022/12/13 01:03:43;;;;;;;540.05;490.33;;;-4.50;99.90;;;;;;5085119;28;20204;-83
2022/12/13 01:06:11;;;;;;;537.58;488.42;;;-4.40;99.90;;;;;;5084245;28;20204;-83
2022/12/13 01:08:38;;;;;;;536.20;486.23;;;-4.50;99.90;;;;;;5084036;28;20198;-83
2022/12/13 01:11:05;;;;;;;548.15;497.27;;;-4.50;99.90;;;;;;5083224;28;20224;-82
2022/12/13 01:13:32;;;;;;;539.75;489.38;;;-4.50;99.90;;;;;;5081585;28;20203;-83
2022/12/13 01:16:01;;;;;;;554.67;503.48;;;-4.50;99.90;;;;;;5081423;28;20192;-82
2022/12/13 01:18:28;;;;;;;545.72;493.60;;;-4.40;99.90;;;;;;5081333;28;20200;-83
2022/12/13 01:21:00;;;;;;;542.47;494.38;;;-4.50;99.90;;;;;;5082566;28;20207;-83
2022/12/13 01:23:28;;;;;;;543.10;495.48;;;-4.50;99.90;;;;;;5082067;28;20196;-83
2022/12/13 01:25:55;;;;;;;530.33;483.67;;;-4.50;99.90;;;;;;5081867;28;20220;-82
2022/12/13 01:28:22;;;;;;;534.17;486.75;;;-4.50;99.90;;;;;;5080860;28;20196;-82
2022/12/13 01:30:56;;;;;;;540.38;489.83;;;-4.50;99.90;;;;;;5081096;28;20211;-82
2022/12/13 01:33:24;;;;;;;529.78;483.20;;;-4.60;99.90;;;;;;5080569;28;20196;-83
2022/12/13 01:35:51;;;;;;;528.10;480.98;;;-4.70;99.90;;;;;;5080530;28;20669;-83
2022/12/13 01:38:19;;;;;;;537.88;488.50;;;-4.70;99.90;;;;;;5082249;28;20207;-83
2022/12/13 01:40:48;;;;;;;536.03;487.05;;;-4.70;99.90;;;;;;5080956;28;20196;-83
2022/12/13 01:43:16;;;;;;;546.42;498.17;;;-4.80;99.90;;;;;;5082097;28;20216;-82
2022/12/13 01:45:43;;;;;;;554.22;504.15;;;-4.60;99.90;;;;;;5080947;28;20193;-82
2022/12/13 01:48:14;;;;;;;542.13;494.08;;;-4.60;99.90;;;;;;5079969;28;20204;-83
2022/12/13 01:50:44;;;;;;;536.13;489.27;;;-4.60;99.90;;;;;;5080085;28;20197;-82
2022/12/13 01:53:16;;;;;;;538.28;489.95;;;-4.60;99.90;;;;;;5080915;28;20200;-82
2022/12/13 01:55:47;;;;;;;548.00;497.05;;;-4.70;99.90;;;;;;5080446;28;20195;-83
2022/12/13 01:58:15;;;;;;;555.05;504.13;;;-4.70;99.90;;;;;;5080223;28;20192;-83
2022/12/13 02:00:42;;;;;;;548.60;497.60;;;-4.70;99.90;;;;;;5080222;28;20196;-82
2022/12/13 02:03:10;;;;;;;555.42;504.92;;;-4.80;99.90;;;;;;5081959;28;20226;-82
2022/12/13 02:05:41;;;;;;;546.15;496.58;;;-4.80;99.90;;;;;;5080054;28;20200;-83
2022/12/13 02:08:10;;;;;;;529.08;482.45;;;-4.70;99.90;;;;;;5079810;28;20212;-82
2022/12/13 02:10:38;;;;;;;551.97;503.50;;;-4.70;99.90;;;;;;5079665;28;20203;-82
2022/12/13 02:13:06;;;;;;;538.80;490.15;;;-4.70;99.90;;;;;;5079914;28;20249;-83
2022/12/13 02:15:47;;;;;;;535.90;486.63;;;-4.70;99.90;;;;;;5079991;28;20200;-83
2022/12/13 02:18:43;;;;;;;531.25;482.15;;;-4.70;99.90;;;;;;5080511;28;20207;-83
2022/12/13 02:21:24;;;;;;;530.25;480.08;;;-4.80;99.90;;;;;;5078957;28;20227;-83
2022/12/13 02:24:15;;;;;;;538.22;487.33;;;-4.80;99.90;;;;;;5080551;28;20695;-82
2022/12/13 02:26:56;;;;;;;520.28;472.77;;;-4.90;99.90;;;;;;5081730;28;20192;-83
2022/12/13 02:29:59;;;;;;;536.63;488.45;;;-5.00;99.90;;;;;;5083138;28;20200;-82
2022/12/13 02:32:33;;;;;;;507.70;462.05;;;-5.10;99.90;;;;;;5079355;28;20223;-83
2022/12/13 02:35:05;;;;;;;511.30;465.25;;;-5.20;99.90;;;;;;5081889;28;20211;-82
2022/12/13 02:37:39;;;;;;;529.17;481.73;;;-5.20;99.90;;;;;;5081572;28;20193;-83
2022/12/13 02:40:15;;;;;;;524.33;477.85;;;-5.30;99.90;;;;;;5084639;28;20292;-83
2022/12/13 02:42:47;;;;;;;539.97;489.73;;;-5.20;99.90;;;;;;5082687;28;20231;-83
2022/12/13 02:45:18;;;;;;;525.60;477.80;;;-5.20;99.90;;;;;;5084814;28;20202;-82
2022/12/13 02:47:48;;;;;;;540.47;489.67;;;-5.20;99.90;;;;;;5083278;28;20574;-82
2022/12/13 02:50:15;;;;;;;537.63;489.15;;;-5.20;99.90;;;;;;5083796;28;20197;-82
2022/12/13 02:52:45;;;;;;;535.08;486.00;;;-5.10;99.90;;;;;;5083544;28;20216;-83
2022/12/13 02:55:15;;;;;;;537.28;487.80;;;-5.20;99.90;;;;;;5083619;28;20196;-83
2022/12/13 02:57:43;;;;;;;534.28;485.85;;;-5.20;99.90;;;;;;5083094;28;20200;-83
2022/12/13 03:00:14;;;;;;;539.70;490.65;;;-5.20;99.90;;;;;;5082210;28;20204;-81
2022/12/13 03:02:53;;;;;;;525.08;477.13;;;-5.30;99.90;;;;;;5082342;28;20705;-82
2022/12/13 03:08:23;;;;;;;542.30;492.40;;;-5.30;99.90;;;;;;5081525;28;20194;-82
2022/12/13 03:10:59;;;;;;;523.20;476.00;;;-5.30;99.90;;;;;;5081931;28;20558;-83
2022/12/13 03:13:35;;;;;;;523.33;475.45;;;-5.30;99.90;;;;;;5082082;28;20192;-83
2022/12/13 03:16:09;;;;;;;520.53;471.33;;;-5.40;99.90;;;;;;5079597;28;20192;-81
2022/12/13 03:18:38;;;;;;;513.35;467.42;;;-5.30;99.90;;;;;;5081262;28;20203;-82
2022/12/13 03:21:08;;;;;;;527.60;478.98;;;-5.40;99.90;;;;;;5080356;28;20251;-83
2022/12/13 03:23:36;;;;;;;536.15;490.85;;;-5.40;99.90;;;;;;5081811;28;20220;-82
2022/12/13 03:26:06;;;;;;;541.80;492.02;;;-5.50;99.90;;;;;;5080932;28;20196;-83
2022/12/13 03:28:33;;;;;;;533.50;484.88;;;-5.50;99.90;;;;;;5079222;28;20703;-83
2022/12/13 03:31:00;;;;;;;537.67;487.48;;;-5.50;99.90;;;;;;5079136;28;20196;-82
2022/12/13 03:33:27;;;;;;;533.05;484.55;;;-5.50;99.90;;;;;;5079091;28;20201;-83
2022/12/13 03:35:56;;;;;;;532.70;485.35;;;-5.60;99.90;;;;;;5079050;28;20207;-82
2022/12/13 03:38:23;;;;;;;517.95;471.10;;;-5.50;99.90;;;;;;5078497;28;20200;-82
2022/12/13 03:40:53;;;;;;;535.55;485.27;;;-5.60;99.90;;;;;;5078970;28;20275;-83
2022/12/13 03:43:20;;;;;;;519.75;472.63;;;-5.60;99.90;;;;;;5079717;28;20223;-83
2022/12/13 03:45:47;;;;;;;534.05;484.23;;;-5.60;99.90;;;;;;5080164;28;20196;-82
2022/12/13 03:48:14;;;;;;;528.42;481.10;;;-5.60;99.90;;;;;;5080890;28;20207;-82
2022/12/13 03:50:41;;;;;;;534.38;485.80;;;-5.60;99.90;;;;;;5080053;28;20200;-82
2022/12/13 03:53:09;;;;;;;527.85;479.25;;;-5.60;99.90;;;;;;5079771;28;20204;-83
2022/12/13 03:55:36;;;;;;;533.88;486.98;;;-5.50;99.90;;;;;;5078776;28;20602;-83
2022/12/13 03:58:02;;;;;;;536.63;485.85;;;-5.50;99.90;;;;;;5078514;28;20200;-83
2022/12/13 04:00:29;;;;;;;529.95;483.52;;;-5.50;99.90;;;;;;5079184;28;20307;-82
2022/12/13 04:02:56;;;;;;;552.03;502.58;;;-5.60;99.90;;;;;;5079091;28;20229;-83
2022/12/13 04:05:23;;;;;;;541.85;493.35;;;-5.50;99.90;;;;;;5079487;28;20196;-83
2022/12/13 04:07:49;;;;;;;546.38;496.73;;;-5.30;99.90;;;;;;5079004;28;20211;-83
2022/12/13 04:10:18;;;;;;;554.47;501.92;;;-5.30;99.90;;;;;;5078460;28;20576;-82
2022/12/13 04:15:25;;;;;;;550.10;499.98;;;-5.00;99.90;;;;;;5046038;28;20220;-83
2022/12/13 04:17:52;;;;;;;544.70;492.88;;;-5.00;99.90;;;;;;5079700;28;20533;-84
2022/12/13 04:20:18;;;;;;;532.20;484.50;;;-5.00;99.90;;;;;;5079435;28;20286;-83
2022/12/13 04:22:45;;;;;;;555.53;504.50;;;-4.90;99.90;;;;;;5081285;28;20213;-83
2022/12/13 04:25:12;;;;;;;549.60;499.33;;;-4.90;99.90;;;;;;5081586;28;20207;-83
2022/12/13 04:27:40;;;;;;;565.17;513.00;;;-4.70;99.90;;;;;;5083759;28;20207;-83
2022/12/13 04:30:08;;;;;;;550.50;500.23;;;-4.80;99.90;;;;;;5081898;28;20207;-84
2022/12/13 04:32:35;;;;;;;548.58;497.58;;;-4.70;99.90;;;;;;5079511;28;20220;-83
2022/12/13 04:35:01;;;;;;;542.90;494.08;;;-4.70;99.90;;;;;;5082005;28;20204;-83
2022/12/13 04:37:28;;;;;;;528.22;478.58;;;-4.80;99.90;;;;;;5082740;28;20199;-83
2022/12/13 04:39:55;;;;;;;545.70;497.48;;;-4.90;99.90;;;;;;5083238;28;20196;-83
2022/12/13 04:42:22;;;;;;;546.05;495.52;;;-4.80;99.90;;;;;;5083078;28;20220;-83
2022/12/13 04:44:50;;;;;;;553.25;501.63;;;-4.90;99.90;;;;;;5085028;28;20200;-84
2022/12/13 04:47:17;;;;;;;553.05;501.63;;;-5.00;99.90;;;;;;5084965;28;20677;-81
2022/12/13 04:49:43;;;;;;;543.88;496.17;;;-4.90;99.90;;;;;;5084510;28;20207;-83
2022/12/13 04:52:10;;;;;;;542.28;493.05;;;-4.90;99.90;;;;;;5083127;28;20227;-83
2022/12/13 04:54:37;;;;;;;546.20;498.73;;;-4.80;99.90;;;;;;5083952;28;20202;-83
2022/12/13 04:57:07;;;;;;;548.83;500.77;;;-4.80;99.90;;;;;;5082301;28;20200;-83
2022/12/13 04:59:33;;;;;;;551.22;503.48;;;-4.80;99.90;;;;;;5084421;28;20199;-83
2022/12/13 05:02:01;;;;;;;535.95;491.13;;;-4.80;99.90;;;;;;5083990;28;20227;-83
2022/12/13 05:04:28;;;;;;;563.25;512.78;;;-4.90;99.90;;;;;;5084313;28;20200;-83
2022/12/13 05:06:56;;;;;;;558.80;509.15;;;-4.80;99.90;;;;;;5083928;28;20196;-83
2022/12/13 05:09:22;;;;;;;555.63;509.13;;;-4.90;99.90;;;;;;5083703;28;20268;-83
2022/12/13 05:11:49;;;;;;;556.53;509.00;;;-4.80;99.90;;;;;;5082921;28;20223;-81
2022/12/13 05:14:16;;;;;;;542.15;494.77;;;-4.90;99.90;;;;;;5084617;28;20197;-83
2022/12/13 05:16:43;;;;;;;539.40;494.30;;;-4.80;99.90;;;;;;5082437;28;20199;-82
2022/12/13 05:19:11;;;;;;;542.10;494.73;;;-5.00;99.90;;;;;;5083414;28;20582;-83
2022/12/13 05:21:37;;;;;;;539.13;491.50;;;-4.80;99.90;;;;;;5082562;28;20217;-83
2022/12/13 05:24:05;;;;;;;532.22;488.92;;;-4.90;99.90;;;;;;5083936;28;20220;-83
2022/12/13 05:26:32;;;;;;;537.20;489.27;;;-4.80;99.90;;;;;;5083413;28;20251;-83
2022/12/13 05:28:59;;;;;;;517.55;473.75;;;-5.00;99.90;;;;;;5082698;28;20196;-82
2022/12/13 05:31:26;;;;;;;512.13;468.13;;;-5.00;99.90;;;;;;5084860;28;20224;-83
2022/12/13 05:33:53;;;;;;;523.63;479.08;;;-5.00;99.90;;;;;;5087739;28;20204;-83
2022/12/13 05:36:24;;;;;;;516.75;472.35;;;-5.00;99.90;;;;;;5088112;28;20196;-83
2022/12/13 05:38:50;;;;;;;517.58;471.80;;;-5.00;99.90;;;;;;5087601;28;20196;-83
2022/12/13 05:41:22;;;;;;;514.15;469.10;;;-5.00;99.90;;;;;;5087021;28;20224;-83
2022/12/13 05:43:48;;;;;;;512.08;466.95;;;-5.00;99.90;;;;;;5087161;28;20224;-83
2022/12/13 05:46:15;;;;;;;512.85;466.17;;;-4.90;99.90;;;;;;5086635;28;20573;-83
2022/12/13 05:48:44;;;;;;;514.85;471.40;;;-5.00;99.90;;;;;;5086800;28;20203;-83
2022/12/13 05:51:11;;;;;;;514.67;470.50;;;-5.00;99.90;;;;;;5086175;28;20220;-83
2022/12/13 05:53:39;;;;;;;505.00;460.85;;;-5.00;99.90;;;;;;5086186;28;20261;-83
2022/12/13 05:56:07;;;;;;;523.47;477.92;;;-5.00;99.90;;;;;;5084958;28;20216;-82
2022/12/13 05:58:34;;;;;;;537.78;490.70;;;-4.90;99.90;;;;;;5085034;28;20205;-83
2022/12/13 06:01:06;;;;;;;534.22;486.55;;;-4.80;99.90;;;;;;5084837;28;20203;-84
2022/12/13 06:03:32;;;;;;;534.50;487.10;;;-4.70;99.90;;;;;;5085636;28;20239;-83
2022/12/13 06:06:01;;;;;;;541.83;494.45;;;-4.80;99.90;;;;;;5085722;28;20199;-84
2022/12/13 06:08:28;;;;;;;546.50;496.52;;;-4.70;99.90;;;;;;5083498;28;20267;-83
2022/12/13 06:10:57;;;;;;;528.97;486.08;;;-4.90;99.90;;;;;;5084142;28;20200;-84
2022/12/13 06:13:24;;;;;;;543.83;497.02;;;-4.80;99.90;;;;;;5085785;28;20290;-84
2022/12/13 06:15:51;;;;;;;540.70;492.25;;;-4.90;99.90;;;;;;5085487;28;20196;-83
2022/12/13 06:18:18;;;;;;;541.60;494.27;;;-5.00;99.90;;;;;;5085462;28;20291;-83
2022/12/13 06:20:46;;;;;;;548.70;501.38;;;-5.00;99.90;;;;;;5086033;28;20202;-83
2022/12/13 06:23:13;;;;;;;545.55;499.00;;;-5.00;99.90;;;;;;5085313;28;20216;-83
2022/12/13 06:25:39;;;;;;;535.90;489.98;;;-5.10;99.90;;;;;;5086544;28;20196;-84
2022/12/13 06:28:07;;;;;;;538.72;492.95;;;-5.20;99.90;;;;;;5083481;28;20192;-82
2022/12/13 06:30:34;;;;;;;527.58;484.15;;;-5.20;99.90;;;;;;5081546;28;20204;-83
2022/12/13 06:33:01;;;;;;;535.53;488.05;;;-5.30;99.90;;;;;;5081805;28;20311;-83
2022/12/13 06:35:28;;;;;;;547.60;502.33;;;-5.30;99.90;;;;;;5085721;28;20200;-83
2022/12/13 06:37:54;;;;;;;550.28;503.48;;;-5.40;99.90;;;;;;5086672;28;20195;-83
2022/12/13 06:40:21;;;;;;;530.92;486.10;;;-5.50;99.90;;;;;;5086097;28;20203;-83
2022/12/13 06:42:48;;;;;;;552.42;505.45;;;-5.60;99.90;;;;;;5086652;28;20228;-84
2022/12/13 06:45:16;;;;;;;536.13;487.48;;;-5.60;99.90;;;;;;5086766;28;20192;-83
2022/12/13 06:47:43;;;;;;;523.35;477.27;;;-5.60;99.90;;;;;;5087322;28;20203;-84
2022/12/13 06:50:10;;;;;;;517.08;472.17;;;-5.80;99.90;;;;;;5085703;28;20676;-82
2022/12/13 06:52:37;;;;;;;529.17;486.27;;;-5.90;99.90;;;;;;5087037;28;20220;-83
2022/12/13 06:55:04;;;;;;;529.75;482.77;;;-5.80;99.90;;;;;;5086536;28;20201;-82
2022/12/13 06:57:32;;;;;;;544.35;497.08;;;-5.80;99.90;;;;;;5087279;28;20203;-83
2022/12/13 06:59:59;;;;;;;549.70;500.65;;;-5.90;99.90;;;;;;5085996;28;20196;-83
2022/12/13 07:02:27;;;;;;;548.75;502.60;;;-5.90;99.90;;;;;;5086346;28;20216;-83
2022/12/13 07:04:55;;;;;;;528.90;486.20;;;-6.00;99.90;;;;;;5086509;28;20220;-83
2022/12/13 07:07:22;;;;;;;534.80;488.98;;;-6.00;99.90;;;;;;5086664;28;20669;-83
2022/12/13 07:09:48;;;;;;;527.80;482.63;;;-6.00;99.90;;;;;;5086503;28;20192;-83
2022/12/13 07:12:15;;;;;;;531.38;487.45;;;-6.10;99.90;;;;;;5086020;28;20228;-83
2022/12/13 07:14:42;;;;;;;537.72;492.05;;;-6.20;99.90;;;;;;5086532;28;20189;-83
2022/12/13 07:17:10;;;;;;;530.45;483.38;;;-6.10;99.90;;;;;;5086006;28;20258;-83
2022/12/13 07:19:38;;;;;;;544.15;499.05;;;-6.10;99.90;;;;;;5084937;28;20619;-83
2022/12/13 07:22:05;;;;;;;545.53;498.73;;;-6.20;99.90;;;;;;5085197;28;20220;-83
2022/12/13 07:24:32;;;;;;;561.85;513.75;;;-6.20;99.90;;;;;;5086020;28;20222;-83
2022/12/13 07:26:58;;;;;;;553.65;507.77;;;-6.10;99.90;;;;;;5085936;28;20206;-83
2022/12/13 07:29:25;;;;;;;554.50;505.77;;;-6.10;99.90;;;;;;5087278;28;20200;-83
2022/12/13 07:31:52;;;;;;;558.13;508.42;;;-6.00;99.90;;;;;;5086007;28;20427;-83
2022/12/13 07:34:19;;;;;;;547.70;501.40;;;-6.00;99.90;;;;;;5087287;28;20660;-83
2022/12/13 07:36:49;;;;;;;526.50;481.08;;;-6.00;99.90;;;;;;5087783;28;20196;-84
2022/12/13 07:39:16;;;;;;;514.90;472.10;;;-6.00;99.90;;;;;;5087835;28;20202;-83
2022/12/13 07:41:43;;;;;;;557.53;506.65;;;-6.20;99.90;;;;;;5086646;28;20223;-83
2022/12/13 07:44:09;;;;;;;553.33;503.80;;;-6.00;99.90;;;;;;5085278;28;20224;-84
2022/12/13 07:46:36;;;;;;;559.78;508.85;;;-5.90;99.90;;;;;;5085208;28;20192;-83
2022/12/13 07:49:04;;;;;;;547.03;495.38;;;-5.80;99.90;;;;;;5084797;28;20196;-85
2022/12/13 07:51:33;;;;;;;551.08;501.67;;;-5.70;99.90;;;;;;5083995;28;20216;-84
2022/12/13 07:54:02;;;;;;;533.65;486.30;;;-5.60;99.90;;;;;;5083867;28;20192;-83
2022/12/13 07:56:28;;;;;;;543.45;492.85;;;-5.50;99.90;;;;;;5084591;28;20201;-83
2022/12/13 07:58:55;;;;;;;536.13;489.63;;;-5.40;99.90;;;;;;5084660;28;20196;-84
2022/12/13 08:01:22;;;;;;;533.58;486.33;;;-5.30;99.90;;;;;;5083867;28;20704;-84
2022/12/13 08:03:50;;;;;;;531.20;482.98;;;-5.20;99.90;;;;;;5083887;28;20260;-82
2022/12/13 08:06:18;;;;;;;526.58;480.83;;;-5.30;99.90;;;;;;5082894;28;20196;-82
2022/12/13 08:08:45;;;;;;;541.95;495.85;;;-5.20;99.90;;;;;;5082664;28;20291;-84
2022/12/13 08:11:16;;;;;;;519.63;475.75;;;-5.10;99.90;;;;;;5082647;28;20220;-83
2022/12/13 08:13:43;;;;;;;520.75;477.30;;;-5.30;99.90;;;;;;5081706;28;20189;-83
2022/12/13 08:16:12;;;;;;;536.58;490.20;;;-5.20;99.90;;;;;;5082944;28;20197;-84
2022/12/13 08:18:39;;;;;;;540.53;496.63;;;-5.20;99.90;;;;;;5096832;28;20221;-83
2022/12/13 08:21:08;;;;;;;550.75;504.25;;;-5.20;99.90;;;;;;5102665;28;20265;-83
2022/12/13 08:23:38;;;;;;;548.72;503.70;;;-4.90;99.90;;;;;;5102347;28;20211;-83
2022/12/13 08:26:06;;;;;;;549.17;502.75;;;-5.00;99.90;;;;;;5102565;28;20300;-84
2022/12/13 08:28:35;;;;;;;544.88;499.33;;;-4.90;99.90;;;;;;5102410;28;20201;-84
2022/12/13 08:31:04;;;;;;;555.63;507.80;;;-4.80;99.90;;;;;;5102846;28;20221;-84
2022/12/13 08:33:30;;;;;;;526.38;481.45;;;-4.70;99.90;;;;;;5103128;28;20198;-84
2022/12/13 08:35:57;;;;;;;528.45;484.13;;;-4.60;99.90;;;;;;5102779;28;20199;-83
2022/12/13 08:38:24;;;;;;;530.38;486.00;;;-4.50;99.90;;;;;;5088654;28;20200;-83
2022/12/13 08:40:51;;;;;;;522.78;479.02;;;-4.40;99.90;;;;;;5081924;28;20196;-83
2022/12/13 08:43:18;;;;;;;530.50;484.92;;;-4.40;99.90;;;;;;5081852;28;20231;-83
2022/12/13 08:45:46;;;;;;;518.30;476.58;;;-4.40;99.90;;;;;;5082685;28;20197;-84
2022/12/13 08:48:13;;;;;;;507.30;467.13;;;-4.20;99.90;;;;;;5082580;28;20234;-83
2022/12/13 08:50:39;;;;;;;506.33;466.65;;;-4.30;99.90;;;;;;5082843;28;20207;-83
2022/12/13 08:53:06;;;;;;;505.25;466.08;;;-4.10;99.90;;;;;;5081850;28;20692;-83
2022/12/13 08:55:33;;;;;;;509.83;470.40;;;-4.10;99.90;;;;;;5080376;28;20197;-82
2022/12/13 08:58:07;;;;;;;509.23;469.30;;;-4.00;99.90;;;;;;5079347;28;20192;-83
2022/12/13 09:00:34;;;;;;;486.85;452.27;;;-3.90;99.90;;;;;;5079059;28;20196;-84
2022/12/13 09:03:02;;;;;;;491.13;454.70;;;-3.90;99.90;;;;;;5078842;28;20223;-84
2022/12/13 09:05:30;;;;;;;496.58;459.35;;;-3.80;99.90;;;;;;5082118;28;20216;-83
2022/12/13 09:07:57;;;;;;;491.95;455.15;;;-3.80;99.90;;;;;;5082051;28;20191;-84
2022/12/13 09:10:24;;;;;;;483.27;447.77;;;-3.70;99.90;;;;;;5081917;28;20300;-83
2022/12/13 09:12:52;;;;;;;486.85;450.15;;;-3.50;99.90;;;;;;5081487;28;20216;-83
2022/12/13 09:15:18;;;;;;;471.98;438.20;;;-3.60;99.90;;;;;;5082747;28;20196;-83
2022/12/13 09:17:45;;;;;;;465.60;431.75;;;-3.60;99.90;;;;;;5082578;28;20203;-84
2022/12/13 09:20:14;;;;;;;469.15;436.08;;;-3.50;99.90;;;;;;5082359;28;20250;-84
2022/12/13 09:22:40;;;;;;;474.55;438.33;;;-3.50;99.90;;;;;;5082580;28;20227;-83
2022/12/13 09:25:08;;;;;;;467.35;435.65;;;-3.30;99.90;;;;;;5082470;28;20219;-84
2022/12/13 09:27:35;;;;;;;453.27;422.95;;;-3.20;99.90;;;;;;5083155;28;20588;-84
2022/12/13 09:30:02;;;;;;;465.15;433.80;;;-3.10;99.90;;;;;;5082641;28;20201;-84
2022/12/13 09:32:29;;;;;;;432.13;405.20;;;-3.00;99.90;;;;;;5081620;28;20235;-84
2022/12/13 09:34:55;;;;;;;400.45;376.65;;;-2.80;99.90;;;;;;5081966;28;20251;-84
2022/12/13 09:37:23;;;;;;;385.40;361.45;;;-2.80;99.90;;;;;;5082299;28;20204;-84
2022/12/13 09:39:50;;;;;;;394.75;370.67;;;-2.80;99.90;;;;;;5081959;28;20565;-84
2022/12/13 09:42:22;;;;;;;331.73;313.13;;;-2.70;99.90;;;;;;5081976;28;20219;-84
2022/12/13 09:44:52;;;;;;;285.27;267.92;;;-2.70;99.90;;;;;;5081993;28;20692;-84
2022/12/13 09:47:27;;;;;;;284.50;267.35;;;-2.70;99.90;;;;;;5082501;28;20200;-84
2022/12/13 09:49:54;;;;;;;303.50;285.45;;;-2.70;99.90;;;;;;5082790;28;20199;-84
2022/12/13 09:52:25;;;;;;;283.88;266.88;;;-2.60;99.90;;;;;;5082289;28;20224;-83
2022/12/13 09:54:55;;;;;;;270.65;252.45;;;-2.60;99.90;;;;;;5082349;28;20189;-83
2022/12/13 09:57:25;;;;;;;244.95;229.45;;;-2.50;99.90;;;;;;5082476;28;20196;-84
2022/12/13 09:59:52;;;;;;;194.43;181.45;;;-2.50;99.90;;;;;;5082464;28;20204;-84
2022/12/13 10:02:24;;;;;;;210.00;198.57;;;-2.40;99.90;;;;;;5081951;28;20255;-83
2022/12/13 10:04:52;;;;;;;194.00;182.45;;;-2.30;99.90;;;;;;5081910;28;20212;-84
2022/12/13 10:07:21;;;;;;;157.40;147.07;;;-2.20;99.90;;;;;;5081577;28;20193;-84
2022/12/13 10:09:51;;;;;;;154.55;145.05;;;-2.20;99.90;;;;;;5082724;28;20601;-83
2022/12/13 10:12:17;;;;;;;117.90;109.60;;;-2.20;99.90;;;;;;5081367;28;20227;-84
2022/12/13 10:14:50;;;;;;;49.20;30.10;;;-2.10;99.90;;;;;;5081482;28;20454;-83
2022/12/13 10:17:20;;;;;;;47.30;29.38;;;-2.00;99.90;;;;;;5081196;28;20669;-83
2022/12/13 10:19:50;;;;;;;44.20;24.60;;;-2.00;99.90;;;;;;5081446;28;20449;-83
2022/12/13 10:22:19;;;;;;;48.85;26.65;;;-2.00;99.90;;;;;;5080140;28;20478;-84
2022/12/13 10:24:53;;;;;;;52.70;27.52;;;-1.90;99.90;;;;;;5083323;28;20216;-84
2022/12/13 10:27:25;;;;;;;38.63;25.50;;;-1.80;99.90;;;;;;5084036;28;20215;-84
2022/12/13 10:30:02;;;;;;;42.33;23.90;;;-1.70;99.90;;;;;;5084208;28;20207;-84
2022/12/13 10:32:32;;;;;;;35.47;21.45;;;-1.70;99.90;;;;;;5082834;28;20235;-84
2022/12/13 10:34:59;;;;;;;42.67;22.30;;;-1.80;99.90;;;;;;5082581;28;20197;-84
2022/12/13 10:37:29;;;;;;;48.35;27.08;;;-1.70;99.90;;;;;;5083414;28;20196;-84
2022/12/13 10:39:58;;;;;;;43.45;22.20;;;-1.70;99.90;;;;;;5082021;28;20200;-84
2022/12/13 10:42:25;;;;;;;31.25;19.42;;;-1.70;99.90;;;;;;5081507;28;20224;-83
2022/12/13 10:45:13;;;;;;;50.30;23.67;;;-1.60;99.90;;;;;;5083287;28;20216;-84
2022/12/13 10:47:43;;;;;;;42.55;21.90;;;-1.50;99.90;;;;;;5082466;28;20185;-83
2022/12/13 10:50:24;;;;;;;44.78;23.48;;;-1.50;99.90;;;;;;5083138;28;20246;-82
2022/12/13 10:52:51;;;;;;;44.58;21.67;;;-1.40;99.90;;;;;;5082284;28;20220;-84
2022/12/13 10:55:28;;;;;;;44.20;21.60;;;-1.20;99.90;;;;;;5081933;28;20199;-84
2022/12/13 10:57:58;;;;;;;43.33;20.48;;;-1.10;99.90;;;;;;5082684;28;20203;-83
2022/12/13 11:00:37;;;;;;;43.25;20.83;;;-1.10;99.90;;;;;;5079932;28;20218;-84
2022/12/13 11:03:05;;;;;;;33.13;17.75;;;-1.10;99.90;;;;;;5081956;28;20216;-84
2022/12/13 11:05:34;;;;;;;40.45;20.90;;;-1.00;99.90;;;;;;5081195;28;20224;-83
2022/12/13 11:08:15;;;;;;;36.70;19.00;;;-1.00;99.90;;;;;;5082095;28;20200;-84
2022/12/13 11:10:44;;;;;;;34.58;18.45;;;-1.10;99.90;;;;;;5081141;28;20462;-83
2022/12/13 11:13:23;;;;;;;37.80;16.83;;;-1.10;99.90;;;;;;5080751;28;20719;-84
2022/12/13 11:15:56;;;;;;;32.47;16.90;;;-1.10;99.90;;;;;;5080858;28;20787;-84
2022/12/13 11:18:25;;;;;;;35.33;18.03;;;-1.00;99.90;;;;;;5077477;28;20754;-83
2022/12/13 11:20:56;;;;;;;38.80;18.75;;;-1.10;99.90;;;;;;5066962;28;151223;-84
2022/12/13 11:23:28;;;;;;;28.43;17.37;;;-1.00;99.90;;;;;;5079827;28;20196;-84
2022/12/13 11:25:59;;;;;;;35.73;19.17;;;-0.90;99.90;;;;;;5081359;28;20478;-84
2022/12/13 11:28:51;;;;;;;35.73;17.60;;;-0.80;99.90;;;;;;5080878;28;21012;-83
2022/12/13 11:31:26;;;;;;;25.67;16.43;;;-0.50;99.90;;;;;;5075182;28;20493;-82
2022/12/13 11:34:01;;;;;;;29.10;14.50;;;0.00;99.90;;;;;;5084199;28;20464;-81
2022/12/13 11:36:37;;;;;;;30.30;15.37;;;0.60;99.90;;;;;;5082089;28;20462;-81
2022/12/13 11:39:16;;;;;;;32.90;15.50;;;1.00;99.90;;;;;;5083393;28;20461;-81
2022/12/13 11:41:54;;;;;;;32.27;16.17;;;1.50;99.90;;;;;;5082274;28;20470;-81
2022/12/13 11:44:27;;;;;;;30.77;15.03;;;1.50;99.90;;;;;;5083026;28;20474;-81
2022/12/13 11:46:56;;;;;;;31.20;14.03;;;1.40;99.90;;;;;;5081700;28;20847;-81
2022/12/13 11:49:38;;;;;;;36.53;14.93;;;1.70;99.90;;;;;;5083559;28;20832;-81
2022/12/13 11:52:13;;;;;;;29.17;15.07;;;2.00;99.90;;;;;;5082644;28;20476;-80
2022/12/13 11:54:51;;;;;;;24.90;13.83;;;2.40;99.90;;;;;;5083094;28;20450;-81
2022/12/13 11:57:31;;;;;;;24.87;13.10;;;2.50;99.90;;;;;;5082454;28;20455;-81
2022/12/13 12:00:05;;;;;;;31.63;14.60;;;2.60;99.90;;;;;;5083699;28;20486;-82
2022/12/13 12:02:35;;;;;;;28.83;16.00;;;2.70;99.90;;;;;;5082660;28;20508;-81
2022/12/13 12:05:06;;;;;;;25.20;14.63;;;2.60;99.90;;;;;;5083630;28;20474;-82
2022/12/13 12:07:38;;;;;;;28.00;14.87;;;2.60;99.90;;;;;;5082109;28;20460;-82
2022/12/13 12:10:17;;;;;;;25.63;13.50;;;2.70;99.90;;;;;;5080057;28;20601;-81
2022/12/13 12:12:50;;;;;;;25.77;15.13;;;2.80;99.90;;;;;;5082290;28;20474;-82
2022/12/13 12:15:22;;;;;;;56.90;30.77;;;2.60;99.90;;;;;;5081251;28;20526;-82
2022/12/13 12:17:49;;;;;;;33.50;16.87;;;2.90;99.90;;;;;;5081944;28;20454;-82
2022/12/13 12:20:23;;;;;;;38.87;21.83;;;2.80;99.90;;;;;;5081979;28;20455;-82
2022/12/13 12:22:59;;;;;;;28.03;16.37;;;2.40;99.90;;;;;;5082980;28;20478;-82
2022/12/13 12:25:35;;;;;;;27.37;15.20;;;2.50;99.90;;;;;;5084853;28;20551;-82
2022/12/13 12:28:12;;;;;;;24.63;15.33;;;2.70;99.90;;;;;;5084842;28;20519;-82
2022/12/13 12:30:49;;;;;;;23.37;14.00;;;2.90;99.90;;;;;;5083949;28;20443;-82